Airfield :
LOGIN :

Register | Disclaimer

   EN    FR    IT 

 










Legend :    VFR   Marginal VFR   IFR   Intensive IFR   Very Intensive IFR
Visi :
Ceiling :
>= 8 km
>= 3000ft
5 to 8 km
1000 to 3000 ft
1500m to 5 km
500 to 1000 ft
800 to 1500m
200 to 500 ft
< 800m
< 200 ft
Symbols :   Thunderstorms  Fog  Heavy snow  Heavy precipitations  Wind > 20 kt
SIGMETs :     Misc.  Thunderstorms  Icing  Turbulence  Mountain Waves  Volcanic Ashes






- Airport Elevation : 17 ft
- IATA code : GRQ


EHGG - Groningen Eelde

CURRENT METAR :
  • 271325Z AUTO 18012KT 140V210 9999 FEW023 SCT026 20/15 Q1010 NOSIG

EXPIRED METARs :
  • 271255Z AUTO 18011KT 150V230 9999 NSC 21/16 Q1010 NOSIG
  • 271225Z AUTO 18011KT 140V230 9999 SCT022 BKN025 21/16 Q1011 NOSIG
  • 271155Z AUTO 17010KT 140V210 9999 SCT023 BKN027 20/16 Q1011 NOSIG
  • 271125Z AUTO 17010KT 130V210 9999 FEW020 20/16 Q1011 NOSIG

TAF TAF EHGG
Valid from the 27 at 12:00 until the 28 at 18:00 UTC


271112Z 2712/2818 18013KT 9999 SCT020
TEMPO 2715/2718 26016G28KT 4000 RA SHRA BKN012 SCT018CB
BECMG 2716/2718 26014KT
BECMG 2718/2721 20005KT
PROB40 2800/2807 4000 BR MIFG
PROB30
TEMPO 2803/2809 BKN004



MET'MAP, your aeronautical weather chart ! - Copyright ORBIFLY December 2007 - Disclaimer

ORBIFLY MET'MAP TEAM :

Programming & Development : Alexandra Zaïnal
Concept & original design : Baudouin d'Aumeries
Assistance for programming : Marc-Olivier Méhu
Technical & hardware support : Manuel Goepfert

Contact : metmap@orbifly.com




SOURCES & CREDITS :

   NOAA